sensor_id;sensor_type;location;lat;lon;timestamp;P1;durP1;ratioP1;P2;durP2;ratioP2
948;SDS011;461;51.436;7.312;2024-01-30T00:02:10;12.20;;;6.50;;
948;SDS011;461;51.436;7.312;2024-01-30T00:04:36;7.73;;;7.00;;
948;SDS011;461;51.436;7.312;2024-01-30T00:07:02;9.80;;;6.50;;
948;SDS011;461;51.436;7.312;2024-01-30T00:09:28;14.63;;;6.73;;
948;SDS011;461;51.436;7.312;2024-01-30T00:11:54;9.47;;;6.60;;
948;SDS011;461;51.436;7.312;2024-01-30T00:14:21;9.03;;;7.00;;
948;SDS011;461;51.436;7.312;2024-01-30T00:16:46;9.90;;;7.40;;
948;SDS011;461;51.436;7.312;2024-01-30T00:19:12;11.03;;;7.20;;
948;SDS011;461;51.436;7.312;2024-01-30T00:21:38;11.40;;;7.47;;
948;SDS011;461;51.436;7.312;2024-01-30T00:24:03;7.53;;;6.40;;
948;SDS011;461;51.436;7.312;2024-01-30T00:26:29;10.70;;;7.47;;
948;SDS011;461;51.436;7.312;2024-01-30T00:28:55;9.63;;;7.87;;
948;SDS011;461;51.436;7.312;2024-01-30T00:31:21;12.60;;;7.70;;
948;SDS011;461;51.436;7.312;2024-01-30T00:33:47;9.80;;;7.53;;
948;SDS011;461;51.436;7.312;2024-01-30T00:36:18;9.57;;;7.40;;
948;SDS011;461;51.436;7.312;2024-01-30T00:38:43;9.90;;;7.00;;
948;SDS011;461;51.436;7.312;2024-01-30T00:41:09;10.50;;;8.07;;
948;SDS011;461;51.436;7.312;2024-01-30T00:43:35;10.20;;;6.60;;
948;SDS011;461;51.436;7.312;2024-01-30T00:46:01;9.10;;;6.83;;
948;SDS011;461;51.436;7.312;2024-01-30T00:48:28;10.27;;;8.10;;
948;SDS011;461;51.436;7.312;2024-01-30T00:50:54;8.67;;;6.60;;
948;SDS011;461;51.436;7.312;2024-01-30T00:53:19;11.07;;;7.40;;
948;SDS011;461;51.436;7.312;2024-01-30T00:55:45;9.77;;;7.37;;
948;SDS011;461;51.436;7.312;2024-01-30T00:58:11;10.63;;;7.03;;
948;SDS011;461;51.436;7.312;2024-01-30T01:00:38;8.70;;;6.57;;
948;SDS011;461;51.436;7.312;2024-01-30T01:03:04;11.43;;;7.80;;
948;SDS011;461;51.436;7.312;2024-01-30T01:05:30;9.07;;;8.10;;
948;SDS011;461;51.436;7.312;2024-01-30T01:07:56;11.50;;;6.73;;
948;SDS011;461;51.436;7.312;2024-01-30T01:10:21;13.73;;;7.10;;
948;SDS011;461;51.436;7.312;2024-01-30T01:12:48;11.20;;;7.60;;
948;SDS011;461;51.436;7.312;2024-01-30T01:15:13;11.93;;;7.70;;
948;SDS011;461;51.436;7.312;2024-01-30T01:17:39;13.20;;;7.50;;
948;SDS011;461;51.436;7.312;2024-01-30T01:20:06;9.70;;;7.90;;
948;SDS011;461;51.436;7.312;2024-01-30T01:22:33;12.53;;;9.17;;
948;SDS011;461;51.436;7.312;2024-01-30T01:24:59;12.57;;;7.37;;
948;SDS011;461;51.436;7.312;2024-01-30T01:27:28;16.07;;;7.83;;
948;SDS011;461;51.436;7.312;2024-01-30T01:29:54;12.77;;;8.23;;
948;SDS011;461;51.436;7.312;2024-01-30T01:32:19;10.27;;;7.67;;
948;SDS011;461;51.436;7.312;2024-01-30T01:34:45;13.47;;;7.20;;
948;SDS011;461;51.436;7.312;2024-01-30T01:37:11;10.87;;;8.00;;
948;SDS011;461;51.436;7.312;2024-01-30T01:39:37;9.73;;;7.17;;
948;SDS011;461;51.436;7.312;2024-01-30T01:42:02;10.00;;;7.90;;
948;SDS011;461;51.436;7.312;2024-01-30T01:44:29;16.63;;;7.80;;
948;SDS011;461;51.436;7.312;2024-01-30T01:46:54;17.00;;;8.03;;
948;SDS011;461;51.436;7.312;2024-01-30T01:49:23;13.60;;;6.83;;
948;SDS011;461;51.436;7.312;2024-01-30T01:51:50;10.63;;;7.80;;
948;SDS011;461;51.436;7.312;2024-01-30T01:54:21;11.10;;;7.90;;
948;SDS011;461;51.436;7.312;2024-01-30T01:56:48;10.70;;;7.40;;
948;SDS011;461;51.436;7.312;2024-01-30T01:59:14;13.33;;;7.90;;
948;SDS011;461;51.436;7.312;2024-01-30T02:01:40;8.70;;;6.50;;
948;SDS011;461;51.436;7.312;2024-01-30T02:04:07;12.40;;;8.40;;
948;SDS011;461;51.436;7.312;2024-01-30T02:06:33;13.17;;;6.93;;
948;SDS011;461;51.436;7.312;2024-01-30T02:09:00;9.40;;;7.10;;
948;SDS011;461;51.436;7.312;2024-01-30T02:11:25;9.30;;;7.37;;
948;SDS011;461;51.436;7.312;2024-01-30T02:13:52;11.83;;;7.10;;
948;SDS011;461;51.436;7.312;2024-01-30T02:16:18;10.03;;;7.33;;
948;SDS011;461;51.436;7.312;2024-01-30T02:18:43;13.30;;;8.20;;
948;SDS011;461;51.436;7.312;2024-01-30T02:21:12;10.00;;;7.00;;
948;SDS011;461;51.436;7.312;2024-01-30T02:23:41;11.40;;;7.30;;
948;SDS011;461;51.436;7.312;2024-01-30T02:26:11;8.30;;;6.60;;
948;SDS011;461;51.436;7.312;2024-01-30T02:28:37;11.53;;;7.83;;
948;SDS011;461;51.436;7.312;2024-01-30T02:31:04;11.37;;;8.10;;
948;SDS011;461;51.436;7.312;2024-01-30T02:33:30;12.00;;;8.00;;
948;SDS011;461;51.436;7.312;2024-01-30T02:35:55;11.70;;;7.70;;
948;SDS011;461;51.436;7.312;2024-01-30T02:38:21;8.60;;;6.70;;
948;SDS011;461;51.436;7.312;2024-01-30T02:40:48;10.10;;;7.47;;
948;SDS011;461;51.436;7.312;2024-01-30T02:43:14;9.03;;;6.60;;
948;SDS011;461;51.436;7.312;2024-01-30T02:45:41;11.07;;;7.60;;
948;SDS011;461;51.436;7.312;2024-01-30T02:48:06;8.20;;;6.43;;
948;SDS011;461;51.436;7.312;2024-01-30T02:50:32;9.33;;;7.40;;
948;SDS011;461;51.436;7.312;2024-01-30T02:52:58;8.93;;;6.33;;
948;SDS011;461;51.436;7.312;2024-01-30T02:55:24;10.37;;;7.17;;
948;SDS011;461;51.436;7.312;2024-01-30T02:57:49;8.27;;;6.30;;
948;SDS011;461;51.436;7.312;2024-01-30T03:00:15;9.50;;;6.50;;
948;SDS011;461;51.436;7.312;2024-01-30T03:02:42;8.80;;;7.17;;
948;SDS011;461;51.436;7.312;2024-01-30T03:05:08;8.00;;;5.80;;
948;SDS011;461;51.436;7.312;2024-01-30T03:07:34;8.83;;;7.63;;
948;SDS011;461;51.436;7.312;2024-01-30T03:09:59;11.00;;;6.10;;
948;SDS011;461;51.436;7.312;2024-01-30T03:12:25;7.27;;;5.80;;
948;SDS011;461;51.436;7.312;2024-01-30T03:14:51;12.00;;;7.17;;
948;SDS011;461;51.436;7.312;2024-01-30T03:17:17;11.40;;;6.00;;
948;SDS011;461;51.436;7.312;2024-01-30T03:19:43;12.80;;;6.73;;
948;SDS011;461;51.436;7.312;2024-01-30T03:22:09;11.37;;;6.70;;
948;SDS011;461;51.436;7.312;2024-01-30T03:24:34;7.57;;;6.40;;
948;SDS011;461;51.436;7.312;2024-01-30T03:27:00;8.13;;;5.70;;
948;SDS011;461;51.436;7.312;2024-01-30T03:29:26;8.73;;;6.33;;
948;SDS011;461;51.436;7.312;2024-01-30T03:31:52;10.20;;;7.00;;
948;SDS011;461;51.436;7.312;2024-01-30T03:34:17;9.60;;;6.13;;
948;SDS011;461;51.436;7.312;2024-01-30T03:36:43;8.47;;;5.77;;
948;SDS011;461;51.436;7.312;2024-01-30T03:39:09;11.30;;;6.97;;
948;SDS011;461;51.436;7.312;2024-01-30T03:41:35;10.43;;;6.63;;
948;SDS011;461;51.436;7.312;2024-01-30T03:44:01;8.00;;;6.13;;
948;SDS011;461;51.436;7.312;2024-01-30T03:46:27;10.50;;;7.07;;
948;SDS011;461;51.436;7.312;2024-01-30T03:48:53;9.60;;;6.70;;
948;SDS011;461;51.436;7.312;2024-01-30T03:51:18;14.93;;;7.30;;
948;SDS011;461;51.436;7.312;2024-01-30T03:53:44;8.63;;;5.83;;
948;SDS011;461;51.436;7.312;2024-01-30T03:56:13;10.70;;;6.37;;
948;SDS011;461;51.436;7.312;2024-01-30T03:58:39;8.23;;;6.30;;
948;SDS011;461;51.436;7.312;2024-01-30T04:01:05;8.67;;;5.50;;
948;SDS011;461;51.436;7.312;2024-01-30T04:03:30;9.53;;;6.23;;
948;SDS011;461;51.436;7.312;2024-01-30T04:05:56;9.90;;;5.67;;
948;SDS011;461;51.436;7.312;2024-01-30T04:08:22;8.70;;;6.50;;
948;SDS011;461;51.436;7.312;2024-01-30T04:10:48;8.57;;;5.77;;
948;SDS011;461;51.436;7.312;2024-01-30T04:13:13;11.47;;;5.90;;
948;SDS011;461;51.436;7.312;2024-01-30T04:15:39;10.40;;;7.40;;
948;SDS011;461;51.436;7.312;2024-01-30T04:18:05;7.90;;;5.80;;
948;SDS011;461;51.436;7.312;2024-01-30T04:20:31;7.30;;;5.03;;
948;SDS011;461;51.436;7.312;2024-01-30T04:22:57;11.10;;;5.90;;
948;SDS011;461;51.436;7.312;2024-01-30T04:25:22;8.93;;;6.03;;
948;SDS011;461;51.436;7.312;2024-01-30T04:27:48;8.67;;;5.60;;
948;SDS011;461;51.436;7.312;2024-01-30T04:30:14;9.80;;;6.40;;
948;SDS011;461;51.436;7.312;2024-01-30T04:32:40;13.10;;;6.33;;
948;SDS011;461;51.436;7.312;2024-01-30T04:37:37;9.27;;;5.97;;
948;SDS011;461;51.436;7.312;2024-01-30T04:40:03;10.17;;;5.80;;
948;SDS011;461;51.436;7.312;2024-01-30T04:42:30;7.20;;;5.37;;
948;SDS011;461;51.436;7.312;2024-01-30T04:44:55;8.80;;;5.93;;
948;SDS011;461;51.436;7.312;2024-01-30T04:47:21;8.93;;;6.33;;
948;SDS011;461;51.436;7.312;2024-01-30T04:49:47;6.30;;;5.00;;
948;SDS011;461;51.436;7.312;2024-01-30T04:52:13;8.10;;;5.50;;
948;SDS011;461;51.436;7.312;2024-01-30T04:54:39;6.50;;;5.67;;
948;SDS011;461;51.436;7.312;2024-01-30T04:57:05;11.07;;;6.13;;
948;SDS011;461;51.436;7.312;2024-01-30T04:59:34;8.23;;;5.83;;
948;SDS011;461;51.436;7.312;2024-01-30T05:02:01;7.90;;;5.33;;
948;SDS011;461;51.436;7.312;2024-01-30T05:04:27;10.27;;;6.67;;
948;SDS011;461;51.436;7.312;2024-01-30T05:06:53;12.13;;;6.17;;
948;SDS011;461;51.436;7.312;2024-01-30T05:09:19;7.23;;;5.60;;
948;SDS011;461;51.436;7.312;2024-01-30T05:11:44;7.60;;;5.20;;
948;SDS011;461;51.436;7.312;2024-01-30T05:14:10;11.07;;;6.50;;
948;SDS011;461;51.436;7.312;2024-01-30T05:16:37;8.80;;;6.73;;
948;SDS011;461;51.436;7.312;2024-01-30T05:19:03;6.60;;;5.13;;
948;SDS011;461;51.436;7.312;2024-01-30T05:21:29;8.70;;;5.30;;
948;SDS011;461;51.436;7.312;2024-01-30T05:23:54;9.03;;;5.87;;
948;SDS011;461;51.436;7.312;2024-01-30T05:26:20;7.53;;;5.33;;
948;SDS011;461;51.436;7.312;2024-01-30T05:28:48;11.60;;;6.10;;
948;SDS011;461;51.436;7.312;2024-01-30T05:31:14;9.63;;;6.53;;
948;SDS011;461;51.436;7.312;2024-01-30T05:33:40;8.87;;;5.53;;
948;SDS011;461;51.436;7.312;2024-01-30T05:36:06;13.30;;;6.00;;
948;SDS011;461;51.436;7.312;2024-01-30T05:38:32;8.43;;;5.30;;
948;SDS011;461;51.436;7.312;2024-01-30T05:41:00;8.83;;;6.27;;
948;SDS011;461;51.436;7.312;2024-01-30T05:43:38;10.00;;;5.83;;
948;SDS011;461;51.436;7.312;2024-01-30T05:46:09;10.03;;;6.10;;
948;SDS011;461;51.436;7.312;2024-01-30T05:48:38;6.87;;;5.20;;
948;SDS011;461;51.436;7.312;2024-01-30T05:51:04;8.00;;;5.23;;
948;SDS011;461;51.436;7.312;2024-01-30T05:53:32;9.00;;;6.00;;
948;SDS011;461;51.436;7.312;2024-01-30T05:55:58;8.60;;;5.97;;
948;SDS011;461;51.436;7.312;2024-01-30T05:58:26;7.70;;;5.33;;
948;SDS011;461;51.436;7.312;2024-01-30T06:00:52;8.03;;;6.10;;
948;SDS011;461;51.436;7.312;2024-01-30T06:03:17;10.80;;;5.90;;
948;SDS011;461;51.436;7.312;2024-01-30T06:05:43;8.80;;;4.70;;
948;SDS011;461;51.436;7.312;2024-01-30T06:08:09;8.83;;;5.60;;
948;SDS011;461;51.436;7.312;2024-01-30T06:10:35;8.40;;;5.30;;
948;SDS011;461;51.436;7.312;2024-01-30T06:13:01;13.60;;;5.13;;
948;SDS011;461;51.436;7.312;2024-01-30T06:15:27;8.47;;;6.00;;
948;SDS011;461;51.436;7.312;2024-01-30T06:17:55;7.80;;;5.80;;
948;SDS011;461;51.436;7.312;2024-01-30T06:20:20;6.50;;;5.40;;
948;SDS011;461;51.436;7.312;2024-01-30T06:22:46;8.37;;;6.33;;
948;SDS011;461;51.436;7.312;2024-01-30T06:25:12;8.93;;;5.33;;
948;SDS011;461;51.436;7.312;2024-01-30T06:27:38;9.80;;;6.47;;
948;SDS011;461;51.436;7.312;2024-01-30T06:30:04;9.40;;;5.50;;
948;SDS011;461;51.436;7.312;2024-01-30T06:32:30;10.57;;;6.20;;
948;SDS011;461;51.436;7.312;2024-01-30T06:34:59;10.03;;;5.80;;
948;SDS011;461;51.436;7.312;2024-01-30T06:37:26;9.70;;;5.77;;
948;SDS011;461;51.436;7.312;2024-01-30T06:39:52;8.77;;;6.53;;
948;SDS011;461;51.436;7.312;2024-01-30T06:42:18;7.97;;;6.07;;
948;SDS011;461;51.436;7.312;2024-01-30T06:44:44;10.13;;;6.63;;
948;SDS011;461;51.436;7.312;2024-01-30T06:47:10;13.00;;;6.50;;
948;SDS011;461;51.436;7.312;2024-01-30T06:49:36;7.90;;;7.00;;
948;SDS011;461;51.436;7.312;2024-01-30T06:52:06;6.10;;;5.50;;
948;SDS011;461;51.436;7.312;2024-01-30T06:54:32;6.97;;;5.80;;
948;SDS011;461;51.436;7.312;2024-01-30T06:57:13;14.60;;;7.80;;
948;SDS011;461;51.436;7.312;2024-01-30T06:59:39;8.97;;;6.20;;
948;SDS011;461;51.436;7.312;2024-01-30T07:02:12;9.47;;;6.10;;
948;SDS011;461;51.436;7.312;2024-01-30T07:04:38;8.10;;;6.10;;
948;SDS011;461;51.436;7.312;2024-01-30T07:07:10;9.27;;;6.63;;
948;SDS011;461;51.436;7.312;2024-01-30T07:09:41;9.87;;;6.37;;
948;SDS011;461;51.436;7.312;2024-01-30T07:12:12;7.90;;;6.43;;
948;SDS011;461;51.436;7.312;2024-01-30T07:14:39;6.20;;;5.27;;
948;SDS011;461;51.436;7.312;2024-01-30T07:17:05;7.43;;;5.57;;
948;SDS011;461;51.436;7.312;2024-01-30T07:19:32;9.13;;;6.53;;
948;SDS011;461;51.436;7.312;2024-01-30T07:22:32;7.30;;;6.07;;
948;SDS011;461;51.436;7.312;2024-01-30T07:25:01;8.13;;;5.77;;
948;SDS011;461;51.436;7.312;2024-01-30T07:27:31;8.90;;;7.23;;
948;SDS011;461;51.436;7.312;2024-01-30T07:30:03;6.23;;;5.60;;
948;SDS011;461;51.436;7.312;2024-01-30T07:32:29;7.13;;;5.67;;
948;SDS011;461;51.436;7.312;2024-01-30T07:34:59;10.33;;;4.80;;
948;SDS011;461;51.436;7.312;2024-01-30T07:37:24;11.73;;;5.60;;
948;SDS011;461;51.436;7.312;2024-01-30T07:39:50;7.53;;;5.73;;
948;SDS011;461;51.436;7.312;2024-01-30T07:42:16;8.90;;;5.87;;
948;SDS011;461;51.436;7.312;2024-01-30T07:44:42;9.53;;;6.13;;
948;SDS011;461;51.436;7.312;2024-01-30T07:47:08;11.07;;;5.80;;
948;SDS011;461;51.436;7.312;2024-01-30T07:49:34;8.10;;;5.57;;
948;SDS011;461;51.436;7.312;2024-01-30T07:52:00;9.97;;;5.20;;
948;SDS011;461;51.436;7.312;2024-01-30T07:54:25;7.70;;;5.67;;
948;SDS011;461;51.436;7.312;2024-01-30T07:56:51;8.93;;;5.30;;
948;SDS011;461;51.436;7.312;2024-01-30T07:59:17;8.70;;;5.23;;
948;SDS011;461;51.436;7.312;2024-01-30T08:01:44;8.00;;;5.30;;
948;SDS011;461;51.436;7.312;2024-01-30T08:04:10;7.97;;;5.33;;
948;SDS011;461;51.436;7.312;2024-01-30T08:06:39;10.07;;;5.83;;
948;SDS011;461;51.436;7.312;2024-01-30T08:11:48;8.97;;;4.77;;
948;SDS011;461;51.436;7.312;2024-01-30T08:14:14;7.80;;;5.50;;
948;SDS011;461;51.436;7.312;2024-01-30T08:16:40;8.57;;;6.37;;
948;SDS011;461;51.436;7.312;2024-01-30T08:19:05;8.23;;;5.67;;
948;SDS011;461;51.436;7.312;2024-01-30T08:21:31;11.93;;;5.97;;
948;SDS011;461;51.436;7.312;2024-01-30T08:24:01;6.73;;;5.00;;
948;SDS011;461;51.436;7.312;2024-01-30T08:26:33;7.80;;;5.70;;
948;SDS011;461;51.436;7.312;2024-01-30T08:29:00;9.90;;;5.17;;
948;SDS011;461;51.436;7.312;2024-01-30T08:31:26;7.80;;;5.47;;
948;SDS011;461;51.436;7.312;2024-01-30T08:33:52;6.97;;;4.97;;
948;SDS011;461;51.436;7.312;2024-01-30T08:36:18;7.00;;;4.90;;
948;SDS011;461;51.436;7.312;2024-01-30T08:38:45;7.13;;;5.47;;
948;SDS011;461;51.436;7.312;2024-01-30T08:41:10;6.00;;;5.27;;
948;SDS011;461;51.436;7.312;2024-01-30T08:43:39;6.70;;;5.50;;
948;SDS011;461;51.436;7.312;2024-01-30T08:46:05;8.27;;;5.57;;
948;SDS011;461;51.436;7.312;2024-01-30T08:48:30;7.33;;;5.63;;
948;SDS011;461;51.436;7.312;2024-01-30T08:50:56;5.93;;;4.73;;
948;SDS011;461;51.436;7.312;2024-01-30T08:53:22;9.03;;;5.20;;
948;SDS011;461;51.436;7.312;2024-01-30T08:55:48;7.80;;;5.40;;
948;SDS011;461;51.436;7.312;2024-01-30T08:58:14;8.33;;;5.50;;
948;SDS011;461;51.436;7.312;2024-01-30T09:00:40;8.93;;;5.43;;
948;SDS011;461;51.436;7.312;2024-01-30T09:03:06;8.30;;;5.17;;
948;SDS011;461;51.436;7.312;2024-01-30T09:05:31;7.50;;;6.27;;
948;SDS011;461;51.436;7.312;2024-01-30T09:07:57;6.70;;;5.10;;
948;SDS011;461;51.436;7.312;2024-01-30T09:15:31;7.53;;;5.13;;
948;SDS011;461;51.436;7.312;2024-01-30T09:17:56;9.00;;;5.80;;
948;SDS011;461;51.436;7.312;2024-01-30T09:20:22;7.30;;;5.20;;
948;SDS011;461;51.436;7.312;2024-01-30T09:22:48;6.30;;;5.33;;
948;SDS011;461;51.436;7.312;2024-01-30T09:25:14;10.67;;;6.53;;
948;SDS011;461;51.436;7.312;2024-01-30T09:27:40;7.43;;;5.90;;
948;SDS011;461;51.436;7.312;2024-01-30T09:30:06;8.73;;;5.93;;
948;SDS011;461;51.436;7.312;2024-01-30T09:32:32;8.27;;;6.03;;
948;SDS011;461;51.436;7.312;2024-01-30T09:34:58;5.77;;;4.77;;
948;SDS011;461;51.436;7.312;2024-01-30T09:39:59;7.33;;;4.93;;
948;SDS011;461;51.436;7.312;2024-01-30T09:42:33;5.57;;;5.03;;
948;SDS011;461;51.436;7.312;2024-01-30T09:45:05;5.93;;;5.00;;
948;SDS011;461;51.436;7.312;2024-01-30T09:47:31;7.67;;;5.20;;
948;SDS011;461;51.436;7.312;2024-01-30T09:50:04;7.57;;;5.17;;
948;SDS011;461;51.436;7.312;2024-01-30T09:52:39;5.80;;;4.97;;
948;SDS011;461;51.436;7.312;2024-01-30T09:55:06;9.60;;;5.07;;
948;SDS011;461;51.436;7.312;2024-01-30T09:57:32;7.87;;;4.43;;
948;SDS011;461;51.436;7.312;2024-01-30T10:00:02;7.00;;;5.10;;
948;SDS011;461;51.436;7.312;2024-01-30T10:02:34;7.27;;;5.00;;
948;SDS011;461;51.436;7.312;2024-01-30T10:05:00;7.87;;;4.43;;
948;SDS011;461;51.436;7.312;2024-01-30T10:07:26;7.60;;;4.60;;
948;SDS011;461;51.436;7.312;2024-01-30T10:09:53;10.80;;;6.07;;
948;SDS011;461;51.436;7.312;2024-01-30T10:12:21;7.20;;;5.43;;
948;SDS011;461;51.436;7.312;2024-01-30T10:14:47;8.40;;;5.10;;
948;SDS011;461;51.436;7.312;2024-01-30T10:17:13;7.10;;;4.97;;
948;SDS011;461;51.436;7.312;2024-01-30T10:19:39;6.13;;;4.07;;
948;SDS011;461;51.436;7.312;2024-01-30T10:22:06;5.77;;;4.33;;
948;SDS011;461;51.436;7.312;2024-01-30T10:24:33;6.90;;;5.17;;
948;SDS011;461;51.436;7.312;2024-01-30T10:26:59;7.47;;;4.67;;
948;SDS011;461;51.436;7.312;2024-01-30T10:29:25;8.50;;;4.60;;
948;SDS011;461;51.436;7.312;2024-01-30T10:32:01;9.63;;;4.97;;
948;SDS011;461;51.436;7.312;2024-01-30T10:34:29;7.13;;;5.40;;
948;SDS011;461;51.436;7.312;2024-01-30T10:37:13;7.30;;;4.60;;
948;SDS011;461;51.436;7.312;2024-01-30T10:39:45;6.47;;;4.97;;
948;SDS011;461;51.436;7.312;2024-01-30T10:42:18;8.00;;;4.40;;
948;SDS011;461;51.436;7.312;2024-01-30T10:47:21;7.90;;;4.90;;
948;SDS011;461;51.436;7.312;2024-01-30T10:49:53;6.97;;;5.03;;
948;SDS011;461;51.436;7.312;2024-01-30T10:52:20;8.83;;;5.10;;
948;SDS011;461;51.436;7.312;2024-01-30T10:54:46;6.30;;;4.93;;
948;SDS011;461;51.436;7.312;2024-01-30T10:57:12;9.17;;;4.87;;
948;SDS011;461;51.436;7.312;2024-01-30T10:59:39;5.37;;;4.70;;
948;SDS011;461;51.436;7.312;2024-01-30T11:02:05;6.00;;;4.07;;
948;SDS011;461;51.436;7.312;2024-01-30T11:04:36;6.80;;;4.70;;
948;SDS011;461;51.436;7.312;2024-01-30T11:07:02;5.83;;;4.83;;
948;SDS011;461;51.436;7.312;2024-01-30T11:09:29;7.67;;;4.83;;
948;SDS011;461;51.436;7.312;2024-01-30T11:12:01;5.33;;;4.80;;
948;SDS011;461;51.436;7.312;2024-01-30T11:14:31;5.20;;;3.90;;
948;SDS011;461;51.436;7.312;2024-01-30T11:16:58;6.10;;;4.90;;
948;SDS011;461;51.436;7.312;2024-01-30T11:19:25;7.97;;;4.83;;
948;SDS011;461;51.436;7.312;2024-01-30T11:21:52;9.27;;;4.90;;
948;SDS011;461;51.436;7.312;2024-01-30T11:24:24;8.13;;;4.70;;
948;SDS011;461;51.436;7.312;2024-01-30T11:26:57;9.03;;;5.33;;
948;SDS011;461;51.436;7.312;2024-01-30T11:29:24;6.93;;;4.50;;
948;SDS011;461;51.436;7.312;2024-01-30T11:31:54;16.47;;;7.33;;
948;SDS011;461;51.436;7.312;2024-01-30T11:34:20;5.57;;;4.33;;
948;SDS011;461;51.436;7.312;2024-01-30T11:36:57;8.60;;;4.30;;
948;SDS011;461;51.436;7.312;2024-01-30T11:39:27;5.93;;;4.43;;
948;SDS011;461;51.436;7.312;2024-01-30T11:41:53;10.50;;;4.33;;
948;SDS011;461;51.436;7.312;2024-01-30T11:44:20;9.67;;;5.03;;
948;SDS011;461;51.436;7.312;2024-01-30T11:46:47;6.70;;;4.30;;
948;SDS011;461;51.436;7.312;2024-01-30T11:49:13;9.20;;;5.23;;
948;SDS011;461;51.436;7.312;2024-01-30T11:51:40;7.43;;;5.50;;
948;SDS011;461;51.436;7.312;2024-01-30T11:54:07;8.03;;;4.90;;
948;SDS011;461;51.436;7.312;2024-01-30T11:56:33;7.77;;;4.80;;
948;SDS011;461;51.436;7.312;2024-01-30T11:58:59;6.60;;;4.50;;
948;SDS011;461;51.436;7.312;2024-01-30T12:01:25;14.03;;;6.83;;
948;SDS011;461;51.436;7.312;2024-01-30T12:03:52;11.60;;;4.67;;
948;SDS011;461;51.436;7.312;2024-01-30T12:06:18;9.23;;;4.70;;
948;SDS011;461;51.436;7.312;2024-01-30T12:08:57;8.33;;;4.50;;
948;SDS011;461;51.436;7.312;2024-01-30T12:11:24;8.63;;;5.33;;
948;SDS011;461;51.436;7.312;2024-01-30T12:13:53;6.53;;;4.47;;
948;SDS011;461;51.436;7.312;2024-01-30T12:16:20;7.93;;;4.87;;
948;SDS011;461;51.436;7.312;2024-01-30T12:18:46;12.70;;;5.73;;
948;SDS011;461;51.436;7.312;2024-01-30T12:21:12;8.77;;;5.17;;
948;SDS011;461;51.436;7.312;2024-01-30T12:23:38;9.70;;;5.60;;
948;SDS011;461;51.436;7.312;2024-01-30T12:26:04;8.17;;;5.17;;
948;SDS011;461;51.436;7.312;2024-01-30T12:28:32;6.77;;;4.70;;
948;SDS011;461;51.436;7.312;2024-01-30T12:31:04;11.93;;;4.67;;
948;SDS011;461;51.436;7.312;2024-01-30T12:33:31;12.63;;;5.30;;
948;SDS011;461;51.436;7.312;2024-01-30T12:35:57;7.20;;;5.43;;
948;SDS011;461;51.436;7.312;2024-01-30T12:38:28;11.10;;;5.43;;
948;SDS011;461;51.436;7.312;2024-01-30T12:40:54;11.33;;;5.30;;
948;SDS011;461;51.436;7.312;2024-01-30T12:43:21;7.57;;;5.20;;
948;SDS011;461;51.436;7.312;2024-01-30T12:45:48;10.40;;;5.43;;
948;SDS011;461;51.436;7.312;2024-01-30T12:48:14;12.97;;;5.60;;
948;SDS011;461;51.436;7.312;2024-01-30T12:50:40;15.27;;;6.87;;
948;SDS011;461;51.436;7.312;2024-01-30T12:53:07;15.53;;;5.80;;
948;SDS011;461;51.436;7.312;2024-01-30T12:55:34;8.77;;;5.20;;
948;SDS011;461;51.436;7.312;2024-01-30T12:58:00;8.87;;;5.23;;
948;SDS011;461;51.436;7.312;2024-01-30T13:00:26;12.53;;;5.70;;
948;SDS011;461;51.436;7.312;2024-01-30T13:02:52;9.30;;;4.70;;
948;SDS011;461;51.436;7.312;2024-01-30T13:05:19;12.33;;;6.20;;
948;SDS011;461;51.436;7.312;2024-01-30T13:07:45;8.80;;;5.47;;
948;SDS011;461;51.436;7.312;2024-01-30T13:10:11;10.53;;;5.60;;
948;SDS011;461;51.436;7.312;2024-01-30T13:15:08;9.53;;;5.33;;
948;SDS011;461;51.436;7.312;2024-01-30T13:17:36;10.90;;;6.10;;
948;SDS011;461;51.436;7.312;2024-01-30T13:20:02;13.50;;;6.27;;
948;SDS011;461;51.436;7.312;2024-01-30T13:22:29;9.17;;;5.83;;
948;SDS011;461;51.436;7.312;2024-01-30T13:24:54;13.33;;;5.80;;
948;SDS011;461;51.436;7.312;2024-01-30T13:27:20;13.47;;;6.10;;
948;SDS011;461;51.436;7.312;2024-01-30T13:29:46;13.63;;;6.70;;
948;SDS011;461;51.436;7.312;2024-01-30T13:32:12;8.40;;;5.63;;
948;SDS011;461;51.436;7.312;2024-01-30T13:34:37;7.63;;;6.10;;
948;SDS011;461;51.436;7.312;2024-01-30T13:37:04;15.73;;;6.13;;
948;SDS011;461;51.436;7.312;2024-01-30T13:39:30;9.50;;;6.00;;
948;SDS011;461;51.436;7.312;2024-01-30T13:41:56;9.50;;;6.80;;
948;SDS011;461;51.436;7.312;2024-01-30T13:44:21;7.00;;;5.20;;
948;SDS011;461;51.436;7.312;2024-01-30T13:46:47;11.70;;;6.63;;
948;SDS011;461;51.436;7.312;2024-01-30T13:49:13;11.00;;;6.10;;
948;SDS011;461;51.436;7.312;2024-01-30T13:51:39;8.93;;;6.43;;
948;SDS011;461;51.436;7.312;2024-01-30T13:54:04;8.60;;;6.10;;
948;SDS011;461;51.436;7.312;2024-01-30T13:56:30;15.20;;;6.50;;
948;SDS011;461;51.436;7.312;2024-01-30T13:58:56;7.37;;;5.33;;
948;SDS011;461;51.436;7.312;2024-01-30T14:01:22;11.30;;;6.13;;
948;SDS011;461;51.436;7.312;2024-01-30T14:03:49;14.47;;;6.33;;
948;SDS011;461;51.436;7.312;2024-01-30T14:06:15;13.30;;;7.67;;
948;SDS011;461;51.436;7.312;2024-01-30T14:08:41;10.97;;;6.70;;
948;SDS011;461;51.436;7.312;2024-01-30T14:11:08;14.50;;;6.80;;
948;SDS011;461;51.436;7.312;2024-01-30T14:13:34;9.33;;;6.13;;
948;SDS011;461;51.436;7.312;2024-01-30T14:16:00;9.47;;;6.47;;
948;SDS011;461;51.436;7.312;2024-01-30T14:18:26;7.40;;;6.00;;
948;SDS011;461;51.436;7.312;2024-01-30T14:20:52;10.50;;;5.70;;
948;SDS011;461;51.436;7.312;2024-01-30T14:23:19;15.40;;;6.33;;
948;SDS011;461;51.436;7.312;2024-01-30T14:25:46;9.20;;;6.10;;
948;SDS011;461;51.436;7.312;2024-01-30T14:28:12;12.53;;;6.80;;
948;SDS011;461;51.436;7.312;2024-01-30T14:30:39;8.50;;;6.43;;
948;SDS011;461;51.436;7.312;2024-01-30T14:33:04;14.57;;;7.63;;
948;SDS011;461;51.436;7.312;2024-01-30T14:35:31;9.27;;;5.80;;
948;SDS011;461;51.436;7.312;2024-01-30T14:37:58;9.77;;;6.43;;
948;SDS011;461;51.436;7.312;2024-01-30T14:40:24;9.97;;;6.30;;
948;SDS011;461;51.436;7.312;2024-01-30T14:42:50;14.30;;;5.77;;
948;SDS011;461;51.436;7.312;2024-01-30T14:45:16;10.73;;;7.03;;
948;SDS011;461;51.436;7.312;2024-01-30T14:47:41;8.77;;;6.00;;
948;SDS011;461;51.436;7.312;2024-01-30T14:50:08;12.50;;;6.13;;
948;SDS011;461;51.436;7.312;2024-01-30T14:52:34;8.90;;;6.27;;
948;SDS011;461;51.436;7.312;2024-01-30T14:55:00;13.07;;;6.40;;
948;SDS011;461;51.436;7.312;2024-01-30T14:57:25;16.57;;;6.80;;
948;SDS011;461;51.436;7.312;2024-01-30T14:59:54;9.13;;;5.50;;
948;SDS011;461;51.436;7.312;2024-01-30T15:02:20;11.37;;;6.30;;
948;SDS011;461;51.436;7.312;2024-01-30T15:04:46;11.43;;;6.60;;
948;SDS011;461;51.436;7.312;2024-01-30T15:07:11;9.10;;;5.60;;
948;SDS011;461;51.436;7.312;2024-01-30T15:09:37;11.87;;;6.90;;
948;SDS011;461;51.436;7.312;2024-01-30T15:12:03;13.03;;;6.67;;
948;SDS011;461;51.436;7.312;2024-01-30T15:14:29;9.80;;;5.90;;
948;SDS011;461;51.436;7.312;2024-01-30T15:16:55;13.77;;;6.57;;
948;SDS011;461;51.436;7.312;2024-01-30T15:19:21;13.00;;;6.37;;
948;SDS011;461;51.436;7.312;2024-01-30T15:21:46;11.13;;;7.70;;
948;SDS011;461;51.436;7.312;2024-01-30T15:24:13;9.03;;;6.57;;
948;SDS011;461;51.436;7.312;2024-01-30T15:26:40;9.17;;;6.80;;
948;SDS011;461;51.436;7.312;2024-01-30T15:29:06;11.50;;;7.03;;
948;SDS011;461;51.436;7.312;2024-01-30T15:31:32;9.27;;;6.83;;
948;SDS011;461;51.436;7.312;2024-01-30T15:33:58;10.90;;;6.97;;
948;SDS011;461;51.436;7.312;2024-01-30T15:36:23;11.60;;;6.67;;
948;SDS011;461;51.436;7.312;2024-01-30T15:38:50;8.53;;;6.50;;
948;SDS011;461;51.436;7.312;2024-01-30T15:41:18;10.27;;;6.90;;
948;SDS011;461;51.436;7.312;2024-01-30T15:43:44;18.43;;;6.87;;
948;SDS011;461;51.436;7.312;2024-01-30T15:46:10;10.67;;;8.90;;
948;SDS011;461;51.436;7.312;2024-01-30T15:48:36;9.63;;;7.27;;
948;SDS011;461;51.436;7.312;2024-01-30T15:51:02;9.43;;;6.23;;
948;SDS011;461;51.436;7.312;2024-01-30T15:53:28;12.33;;;6.70;;
948;SDS011;461;51.436;7.312;2024-01-30T15:55:54;10.50;;;7.50;;